Time;durP1;ratioP1;P1;durP2;ratioP2;P2;SDS_P1;SDS_P2;PMS_P1;PMS_P2;Temp;Humidity;BMP_temperature;BMP_pressure;BME280_temperature;BME280_humidity;BME280_pressure;Samples;Min_cycle;Max_cycle;Signal;HPM_P1;HPM_P2
2023/01/25 00:00:52;;;;;;;0.00;0.00;;;;;;;;;;5990971;23;20037;-88
2023/01/25 00:03:18;;;;;;;0.00;0.00;;;;;;;;;;5991146;23;20106;-88
2023/01/25 00:05:44;;;;;;;0.00;0.00;;;;;;;;;;5990983;23;20023;-89
2023/01/25 00:08:10;;;;;;;0.00;0.00;;;;;;;;;;6014450;23;20350;-88
2023/01/25 00:10:36;;;;;;;0.00;0.00;;;;;;;;;;5990524;23;20026;-89
2023/01/25 00:13:02;;;;;;;0.00;0.00;;;;;;;;;;6014495;23;20323;-88
2023/01/25 00:15:28;;;;;;;0.00;0.00;;;;;;;;;;6014226;23;20017;-89
2023/01/25 00:17:54;;;;;;;0.00;0.00;;;;;;;;;;6014363;23;20398;-88
2023/01/25 00:20:20;;;;;;;0.00;0.00;;;;;;;;;;6014568;23;20019;-89
2023/01/25 00:22:46;;;;;;;0.00;0.00;;;;;;;;;;6014384;23;20023;-90
2023/01/25 00:25:11;;;;;;;0.00;0.00;;;;;;;;;;6014090;23;20390;-91
2023/01/25 00:27:37;;;;;;;0.00;0.00;;;;;;;;;;6014289;23;20031;-88
2023/01/25 00:30:04;;;;;;;0.00;0.00;;;;;;;;;;6013978;23;20499;-88
2023/01/25 00:32:40;;;;;;;0.00;0.00;;;;;;;;;;6014524;23;20019;-90
2023/01/25 00:35:10;;;;;;;0.00;0.00;;;;;;;;;;5990842;23;20015;-90
2023/01/25 00:37:37;;;;;;;0.00;0.00;;;;;;;;;;6014343;23;20377;-89
2023/01/25 00:40:03;;;;;;;0.00;0.00;;;;;;;;;;5990444;23;20442;-89
2023/01/25 00:42:29;;;;;;;0.00;0.00;;;;;;;;;;6014172;23;20038;-88
2023/01/25 00:44:55;;;;;;;0.35;0.13;;;;;;;;;;6013885;23;20026;-88
2023/01/25 00:47:21;;;;;;;0.00;0.00;;;;;;;;;;6014046;23;20074;-88
2023/01/25 00:49:47;;;;;;;0.00;0.00;;;;;;;;;;6013885;23;20019;-89
2023/01/25 00:52:14;;;;;;;0.00;0.00;;;;;;;;;;6014144;23;20019;-89
2023/01/25 00:54:40;;;;;;;0.00;0.00;;;;;;;;;;5990450;23;20021;-89
2023/01/25 00:57:06;;;;;;;0.00;0.00;;;;;;;;;;6014009;23;20015;-89
2023/01/25 00:59:33;;;;;;;0.00;0.00;;;;;;;;;;6013901;23;20015;-89
2023/01/25 01:01:59;;;;;;;0.00;0.00;;;;;;;;;;6014108;23;20022;-89
2023/01/25 01:04:25;;;;;;;0.00;0.00;;;;;;;;;;6014000;23;20408;-87
2023/01/25 01:06:55;;;;;;;0.00;0.00;;;;;;;;;;5990571;23;20098;-88
2023/01/25 01:09:21;;;;;;;0.00;0.00;;;;;;;;;;5990378;23;20078;-88
2023/01/25 01:11:47;;;;;;;0.00;0.00;;;;;;;;;;5990082;23;20019;-89
2023/01/25 01:14:14;;;;;;;0.00;0.00;;;;;;;;;;6014048;23;20086;-89
2023/01/25 01:16:40;;;;;;;0.00;0.00;;;;;;;;;;6013660;23;20396;-88
2023/01/25 01:19:06;;;;;;;0.00;0.00;;;;;;;;;;5990757;23;20480;-88
2023/01/25 01:21:32;;;;;;;0.00;0.00;;;;;;;;;;5990310;23;20279;-89
2023/01/25 01:23:58;;;;;;;0.00;0.00;;;;;;;;;;6014013;23;20026;-88
2023/01/25 01:26:24;;;;;;;0.10;0.10;;;;;;;;;;6013450;23;20052;-88
2023/01/25 01:28:50;;;;;;;0.08;0.03;;;;;;;;;;6013975;23;20023;-88
2023/01/25 01:31:20;;;;;;;0.00;0.00;;;;;;;;;;6013558;23;20019;-89
2023/01/25 01:33:53;;;;;;;0.00;0.00;;;;;;;;;;6013958;23;20172;-88
2023/01/25 01:36:20;;;;;;;0.00;0.00;;;;;;;;;;5990117;23;20046;-90
2023/01/25 01:38:47;;;;;;;0.00;0.00;;;;;;;;;;6013861;23;20063;-88
2023/01/25 01:41:13;;;;;;;0.00;0.00;;;;;;;;;;5990209;23;20050;-88
2023/01/25 01:43:40;;;;;;;0.00;0.00;;;;;;;;;;5990748;23;20015;-89
2023/01/25 01:46:10;;;;;;;0.00;0.00;;;;;;;;;;5990079;23;20026;-89
2023/01/25 01:48:43;;;;;;;0.00;0.00;;;;;;;;;;6013993;23;20015;-90
2023/01/25 01:51:15;;;;;;;0.40;0.35;;;;;;;;;;6013463;23;20026;-89
2023/01/25 01:53:44;;;;;;;0.00;0.00;;;;;;;;;;6013894;23;20019;-88
2023/01/25 01:56:11;;;;;;;0.00;0.00;;;;;;;;;;6013461;23;20090;-90
2023/01/25 01:58:37;;;;;;;0.00;0.00;;;;;;;;;;6013776;23;20015;-89
2023/01/25 02:01:03;;;;;;;0.00;0.00;;;;;;;;;;5990166;23;20023;-88
2023/01/25 02:03:30;;;;;;;0.00;0.00;;;;;;;;;;6013786;23;20019;-89
2023/01/25 02:06:01;;;;;;;0.00;0.00;;;;;;;;;;6013467;23;20026;-88
2023/01/25 02:08:27;;;;;;;0.00;0.00;;;;;;;;;;6013686;23;20015;-88
2023/01/25 02:10:53;;;;;;;0.00;0.00;;;;;;;;;;6013216;23;20030;-88
2023/01/25 02:13:20;;;;;;;0.00;0.00;;;;;;;;;;6013742;23;20023;-88
2023/01/25 02:15:47;;;;;;;0.00;0.00;;;;;;;;;;6013469;23;20349;-88
2023/01/25 02:18:13;;;;;;;0.00;0.00;;;;;;;;;;6013743;23;20019;-89
2023/01/25 02:20:41;;;;;;;0.00;0.00;;;;;;;;;;5990418;23;20445;-87
2023/01/25 02:23:07;;;;;;;0.00;0.00;;;;;;;;;;5991869;23;20461;-88
2023/01/25 02:25:33;;;;;;;0.77;0.50;;;;;;;;;;6015154;23;20030;-88
2023/01/25 02:28:20;;;;;;;0.00;0.00;;;;;;;;;;6015268;23;20015;-88
2023/01/25 02:30:46;;;;;;;0.00;0.00;;;;;;;;;;6014964;23;20020;-88
2023/01/25 02:33:12;;;;;;;0.00;0.00;;;;;;;;;;6015360;23;20018;-89
2023/01/25 02:35:40;;;;;;;0.00;0.00;;;;;;;;;;6015047;23;20418;-88
2023/01/25 02:38:07;;;;;;;0.00;0.00;;;;;;;;;;6015167;23;20090;-88
2023/01/25 02:40:36;;;;;;;0.00;0.00;;;;;;;;;;6015135;23;20074;-88
2023/01/25 02:43:02;;;;;;;0.00;0.00;;;;;;;;;;6015169;23;20022;-89
2023/01/25 02:45:29;;;;;;;0.10;0.08;;;;;;;;;;6014967;23;20090;-89
2023/01/25 02:47:55;;;;;;;0.00;0.00;;;;;;;;;;6015079;23;20322;-89
2023/01/25 02:50:21;;;;;;;0.00;0.00;;;;;;;;;;6015491;23;20067;-90
2023/01/25 02:52:47;;;;;;;0.25;0.25;;;;;;;;;;6014964;23;20044;-88
2023/01/25 02:55:13;;;;;;;0.00;0.00;;;;;;;;;;6015152;23;20346;-89
2023/01/25 02:57:39;;;;;;;0.00;0.00;;;;;;;;;;5991271;23;20015;-88
2023/01/25 03:00:05;;;;;;;0.00;0.00;;;;;;;;;;6015039;23;20015;-89
2023/01/25 03:02:32;;;;;;;0.00;0.00;;;;;;;;;;5991436;23;20023;-89
2023/01/25 03:04:58;;;;;;;0.00;0.00;;;;;;;;;;6015096;23;20015;-88
2023/01/25 03:07:24;;;;;;;0.20;0.10;;;;;;;;;;6014677;23;20019;-88
2023/01/25 03:09:50;;;;;;;0.00;0.00;;;;;;;;;;6014936;23;20074;-89
2023/01/25 03:12:16;;;;;;;0.13;0.00;;;;;;;;;;6014480;23;20019;-89
2023/01/25 03:14:43;;;;;;;0.38;0.22;;;;;;;;;;5991443;23;20094;-89
2023/01/25 03:17:09;;;;;;;0.00;0.00;;;;;;;;;;5991294;23;20071;-88
2023/01/25 03:19:35;;;;;;;0.22;0.13;;;;;;;;;;5991634;23;20342;-89
2023/01/25 03:22:01;;;;;;;0.70;0.22;;;;;;;;;;6014659;23;20090;-89
2023/01/25 03:24:27;;;;;;;0.00;0.00;;;;;;;;;;6014859;23;20021;-88
2023/01/25 03:27:13;;;;;;;0.00;0.00;;;;;;;;;;6014444;23;20019;-88
2023/01/25 03:29:39;;;;;;;0.00;0.00;;;;;;;;;;5991472;23;20094;-88
2023/01/25 03:32:05;;;;;;;0.00;0.00;;;;;;;;;;6014405;23;20046;-89
2023/01/25 03:34:31;;;;;;;0.00;0.00;;;;;;;;;;6014812;23;20410;-89
2023/01/25 03:36:57;;;;;;;0.10;0.10;;;;;;;;;;5990998;23;20015;-89
2023/01/25 03:39:23;;;;;;;0.00;0.00;;;;;;;;;;5991534;23;20508;-88
2023/01/25 03:41:49;;;;;;;0.00;0.00;;;;;;;;;;5991032;23;20015;-89
2023/01/25 03:44:15;;;;;;;0.00;0.00;;;;;;;;;;5991178;23;20026;-88
2023/01/25 03:46:41;;;;;;;0.00;0.00;;;;;;;;;;6014545;23;20098;-89
2023/01/25 03:49:08;;;;;;;0.00;0.00;;;;;;;;;;6015047;23;20019;-88
2023/01/25 03:51:34;;;;;;;0.00;0.00;;;;;;;;;;6014103;23;20020;-88
2023/01/25 03:54:00;;;;;;;0.03;0.03;;;;;;;;;;5991138;23;20011;-88
2023/01/25 03:56:26;;;;;;;0.00;0.00;;;;;;;;;;5990559;23;20077;-88
2023/01/25 03:58:52;;;;;;;0.00;0.00;;;;;;;;;;5991026;23;20053;-87
2023/01/25 04:01:18;;;;;;;0.13;0.10;;;;;;;;;;6014241;23;20020;-88
2023/01/25 04:03:44;;;;;;;1.17;0.30;;;;;;;;;;6014412;23;20019;-89
2023/01/25 04:06:10;;;;;;;0.00;0.00;;;;;;;;;;6014309;23;20011;-89
2023/01/25 04:08:36;;;;;;;0.00;0.00;;;;;;;;;;5991065;23;20019;-88
2023/01/25 04:11:06;;;;;;;0.47;0.38;;;;;;;;;;6014149;23;20063;-88
2023/01/25 04:13:35;;;;;;;0.10;0.10;;;;;;;;;;6014573;23;20021;-88
2023/01/25 04:16:05;;;;;;;0.00;0.00;;;;;;;;;;6014400;23;20015;-89
2023/01/25 04:18:31;;;;;;;0.00;0.00;;;;;;;;;;6014067;23;20015;-90
2023/01/25 04:20:57;;;;;;;0.00;0.00;;;;;;;;;;6014276;23;20015;-89
2023/01/25 04:23:24;;;;;;;0.00;0.00;;;;;;;;;;6014116;23;20019;-89
2023/01/25 04:26:04;;;;;;;0.00;0.00;;;;;;;;;;6014308;23;20066;-88
2023/01/25 04:28:31;;;;;;;0.00;0.00;;;;;;;;;;6014071;23;20019;-90
2023/01/25 04:30:57;;;;;;;0.00;0.00;;;;;;;;;;6014701;23;20051;-88
2023/01/25 04:33:24;;;;;;;0.00;0.00;;;;;;;;;;6014006;23;20017;-89
2023/01/25 04:35:50;;;;;;;0.00;0.00;;;;;;;;;;5990628;23;20047;-88
2023/01/25 04:38:16;;;;;;;0.00;0.00;;;;;;;;;;6013840;23;20066;-89
2023/01/25 04:40:42;;;;;;;0.00;0.00;;;;;;;;;;6014236;23;20102;-88
2023/01/25 04:43:09;;;;;;;0.10;0.10;;;;;;;;;;6013623;23;20019;-88
2023/01/25 04:45:35;;;;;;;0.00;0.00;;;;;;;;;;5990692;23;20452;-88
2023/01/25 04:48:08;;;;;;;0.00;0.00;;;;;;;;;;6013826;23;20375;-89
2023/01/25 04:50:34;;;;;;;0.00;0.00;;;;;;;;;;6014020;23;20098;-88
2023/01/25 04:53:00;;;;;;;0.00;0.00;;;;;;;;;;6013800;23;20015;-89
2023/01/25 04:55:26;;;;;;;0.00;0.00;;;;;;;;;;6014137;23;20034;-89
2023/01/25 04:57:52;;;;;;;0.00;0.00;;;;;;;;;;5990360;23;20116;-88
2023/01/25 05:00:18;;;;;;;0.00;0.00;;;;;;;;;;6014056;23;20019;-88
2023/01/25 05:02:44;;;;;;;0.00;0.00;;;;;;;;;;6013931;23;20353;-88
2023/01/25 05:05:10;;;;;;;0.05;0.00;;;;;;;;;;6013966;23;20026;-88
2023/01/25 05:07:37;;;;;;;0.00;0.00;;;;;;;;;;6013730;23;20398;-89
2023/01/25 05:10:03;;;;;;;0.00;0.00;;;;;;;;;;6014012;23;20047;-89
2023/01/25 05:12:29;;;;;;;0.00;0.00;;;;;;;;;;6013555;23;20078;-89
2023/01/25 05:14:55;;;;;;;0.00;0.00;;;;;;;;;;5990555;23;20011;-89
2023/01/25 05:17:24;;;;;;;1.75;0.52;;;;;;;;;;6013605;23;20011;-89
2023/01/25 05:19:50;;;;;;;0.60;0.60;;;;;;;;;;6013818;23;20469;-90
2023/01/25 05:22:19;;;;;;;0.00;0.00;;;;;;;;;;6014060;23;20628;-89
2023/01/25 05:24:45;;;;;;;0.00;0.00;;;;;;;;;;5990388;23;20012;-89
2023/01/25 05:27:13;;;;;;;0.00;0.00;;;;;;;;;;6013606;23;20327;-88
2023/01/25 05:29:40;;;;;;;0.00;0.00;;;;;;;;;;6014299;23;20057;-88
2023/01/25 05:32:17;;;;;;;0.25;0.10;;;;;;;;;;6013526;23;20094;-88
2023/01/25 05:34:43;;;;;;;0.20;0.13;;;;;;;;;;6013854;23;20023;-89
2023/01/25 05:37:10;;;;;;;0.00;0.00;;;;;;;;;;6013578;23;20070;-89
2023/01/25 05:39:36;;;;;;;0.00;0.00;;;;;;;;;;6013783;23;20019;-89
2023/01/25 05:42:02;;;;;;;0.00;0.00;;;;;;;;;;6013852;23;20022;-89
2023/01/25 05:44:28;;;;;;;0.00;0.00;;;;;;;;;;6013633;23;20019;-90
2023/01/25 05:46:54;;;;;;;0.00;0.00;;;;;;;;;;5990251;23;20051;-88
2023/01/25 05:49:20;;;;;;;0.00;0.00;;;;;;;;;;5990247;23;20025;-88
2023/01/25 05:51:46;;;;;;;0.52;0.30;;;;;;;;;;6013686;23;20061;-89
2023/01/25 05:54:13;;;;;;;0.00;0.00;;;;;;;;;;6013632;23;20015;-89
2023/01/25 05:56:39;;;;;;;0.00;0.00;;;;;;;;;;6015081;23;20015;-88
2023/01/25 05:59:05;;;;;;;0.95;0.38;;;;;;;;;;6015302;23;20019;-88
2023/01/25 06:01:31;;;;;;;0.00;0.00;;;;;;;;;;6015664;23;20342;-88
2023/01/25 06:03:57;;;;;;;0.20;0.20;;;;;;;;;;6015403;23;20026;-88
2023/01/25 06:06:24;;;;;;;0.00;0.00;;;;;;;;;;6015648;23;20019;-90
2023/01/25 06:08:50;;;;;;;0.00;0.00;;;;;;;;;;6015397;23;20019;-88
2023/01/25 06:11:17;;;;;;;0.00;0.00;;;;;;;;;;6015296;23;20027;-88
2023/01/25 06:13:43;;;;;;;0.00;0.00;;;;;;;;;;6015370;23;20019;-88
2023/01/25 06:16:10;;;;;;;0.00;0.00;;;;;;;;;;6015437;23;20424;-88
2023/01/25 06:18:36;;;;;;;0.08;0.08;;;;;;;;;;6015171;23;20397;-88
2023/01/25 06:21:03;;;;;;;0.00;0.00;;;;;;;;;;6015505;23;20019;-88
2023/01/25 06:23:29;;;;;;;0.00;0.00;;;;;;;;;;6015301;23;20315;-89
2023/01/25 06:25:58;;;;;;;0.00;0.00;;;;;;;;;;6015478;23;20019;-88
2023/01/25 06:28:24;;;;;;;0.10;0.10;;;;;;;;;;6015108;23;20030;-88
2023/01/25 06:30:50;;;;;;;0.00;0.00;;;;;;;;;;5992054;23;20019;-88
2023/01/25 06:33:16;;;;;;;0.00;0.00;;;;;;;;;;6015732;23;20039;-89
2023/01/25 06:35:42;;;;;;;0.00;0.00;;;;;;;;;;6015403;23;20180;-90
2023/01/25 06:38:08;;;;;;;0.00;0.00;;;;;;;;;;5991710;23;20087;-88
2023/01/25 06:40:34;;;;;;;0.00;0.00;;;;;;;;;;6015269;23;20019;-89
2023/01/25 06:43:11;;;;;;;0.00;0.00;;;;;;;;;;5991596;23;20015;-89
2023/01/25 06:45:37;;;;;;;0.00;0.00;;;;;;;;;;6015286;23;20026;-90
2023/01/25 06:48:03;;;;;;;0.00;0.00;;;;;;;;;;6014858;23;20015;-87
2023/01/25 06:50:29;;;;;;;0.00;0.00;;;;;;;;;;6015161;23;20062;-88
2023/01/25 06:52:56;;;;;;;0.00;0.00;;;;;;;;;;6014984;23;20426;-88
2023/01/25 06:55:22;;;;;;;0.00;0.00;;;;;;;;;;5991698;23;20011;-88
2023/01/25 06:57:48;;;;;;;0.00;0.00;;;;;;;;;;6014952;23;20015;-88
2023/01/25 07:00:15;;;;;;;0.00;0.00;;;;;;;;;;5991325;23;20450;-89
2023/01/25 07:02:41;;;;;;;0.00;0.00;;;;;;;;;;6015103;23;20026;-88
2023/01/25 07:05:07;;;;;;;0.00;0.00;;;;;;;;;;6014746;23;20318;-88
2023/01/25 07:07:33;;;;;;;0.00;0.00;;;;;;;;;;6014716;23;20023;-89
2023/01/25 07:10:01;;;;;;;0.00;0.00;;;;;;;;;;6014902;23;20015;-88
2023/01/25 07:12:30;;;;;;;0.00;0.00;;;;;;;;;;6014778;23;20019;-89
2023/01/25 07:14:56;;;;;;;1.23;0.10;;;;;;;;;;6014603;23;20023;-88
2023/01/25 07:17:22;;;;;;;0.00;0.00;;;;;;;;;;6015242;23;20334;-88
2023/01/25 07:19:48;;;;;;;0.00;0.00;;;;;;;;;;6014650;23;20022;-90
2023/01/25 07:22:14;;;;;;;0.00;0.00;;;;;;;;;;6014932;23;20015;-89
2023/01/25 07:24:40;;;;;;;0.03;0.03;;;;;;;;;;6014689;23;20037;-89
2023/01/25 07:27:06;;;;;;;0.00;0.00;;;;;;;;;;6014930;23;20023;-89
2023/01/25 07:29:32;;;;;;;0.10;0.08;;;;;;;;;;6014625;23;20406;-90
2023/01/25 07:31:58;;;;;;;0.00;0.00;;;;;;;;;;5991944;23;20165;-90
2023/01/25 07:34:24;;;;;;;0.00;0.00;;;;;;;;;;6014619;23;20071;-89
2023/01/25 07:36:50;;;;;;;0.00;0.00;;;;;;;;;;5991182;23;20094;-90
2023/01/25 07:39:16;;;;;;;0.00;0.00;;;;;;;;;;6014374;23;20114;-90
2023/01/25 07:41:42;;;;;;;0.00;0.00;;;;;;;;;;6014774;23;20015;-89
2023/01/25 07:44:09;;;;;;;0.00;0.00;;;;;;;;;;6014511;23;20015;-89
2023/01/25 07:46:35;;;;;;;0.00;0.00;;;;;;;;;;6014660;23;20019;-90
2023/01/25 07:49:05;;;;;;;0.20;0.10;;;;;;;;;;5995695;23;20074;-94
2023/01/25 07:51:34;;;;;;;0.00;0.00;;;;;;;;;;5989275;23;20015;-92
2023/01/25 07:54:04;;;;;;;0.00;0.00;;;;;;;;;;5996881;23;20015;-93
2023/01/25 07:56:31;;;;;;;0.00;0.00;;;;;;;;;;6015868;23;20098;-86
2023/01/25 07:58:58;;;;;;;0.00;0.00;;;;;;;;;;6014232;23;20019;-88
2023/01/25 08:01:25;;;;;;;0.52;0.10;;;;;;;;;;5992027;23;20397;-93
2023/01/25 08:03:51;;;;;;;0.20;0.20;;;;;;;;;;5991542;23;20402;-91
2023/01/25 08:06:26;;;;;;;2.35;0.20;;;;;;;;;;5991179;23;20183;-91
2023/01/25 08:08:54;;;;;;;0.00;0.00;;;;;;;;;;5991163;23;20019;-91
2023/01/25 08:11:21;;;;;;;0.22;0.22;;;;;;;;;;5990909;23;20023;-90
2023/01/25 08:13:48;;;;;;;0.00;0.00;;;;;;;;;;5990981;23;20016;-91
2023/01/25 08:16:15;;;;;;;0.00;0.00;;;;;;;;;;5991442;23;20141;-91
2023/01/25 08:18:41;;;;;;;0.00;0.00;;;;;;;;;;5990947;23;20018;-91
2023/01/25 08:21:08;;;;;;;0.22;0.20;;;;;;;;;;5991804;23;20095;-91
2023/01/25 08:23:35;;;;;;;0.00;0.00;;;;;;;;;;5990996;23;20106;-90
2023/01/25 08:26:01;;;;;;;0.05;0.05;;;;;;;;;;5990885;23;20103;-93
2023/01/25 08:28:27;;;;;;;0.22;0.20;;;;;;;;;;5991502;23;20102;-90
2023/01/25 08:30:53;;;;;;;0.00;0.00;;;;;;;;;;5991709;23;20447;-90
2023/01/25 08:33:19;;;;;;;0.00;0.00;;;;;;;;;;5991980;23;20074;-91
2023/01/25 08:35:58;;;;;;;0.80;0.43;;;;;;;;;;5991064;23;20015;-93
2023/01/25 08:38:24;;;;;;;0.00;0.00;;;;;;;;;;6014586;23;20016;-90
2023/01/25 08:40:50;;;;;;;0.00;0.00;;;;;;;;;;6014255;23;20056;-91
2023/01/25 08:43:16;;;;;;;0.00;0.00;;;;;;;;;;5991544;23;20023;-91
2023/01/25 08:45:42;;;;;;;0.00;0.00;;;;;;;;;;6014674;23;20038;-91
2023/01/25 08:48:08;;;;;;;0.00;0.00;;;;;;;;;;5990987;23;20020;-91
2023/01/25 08:50:34;;;;;;;0.00;0.00;;;;;;;;;;5990501;23;20394;-92
2023/01/25 08:53:00;;;;;;;0.00;0.00;;;;;;;;;;5991072;23;20015;-92
2023/01/25 08:55:26;;;;;;;0.20;0.10;;;;;;;;;;6014636;23;20055;-92
2023/01/25 08:57:52;;;;;;;0.10;0.05;;;;;;;;;;5990973;23;20011;-92
2023/01/25 09:00:18;;;;;;;0.00;0.00;;;;;;;;;;5990913;23;20026;-92
2023/01/25 09:02:44;;;;;;;0.00;0.00;;;;;;;;;;5991589;23;20375;-91
2023/01/25 09:05:10;;;;;;;0.00;0.00;;;;;;;;;;5990816;23;20019;-92
2023/01/25 09:07:37;;;;;;;0.00;0.00;;;;;;;;;;5990953;23;20346;-90
2023/01/25 09:10:07;;;;;;;0.25;0.10;;;;;;;;;;6013876;23;20521;-90
2023/01/25 09:12:34;;;;;;;0.00;0.00;;;;;;;;;;5990747;23;20051;-91
2023/01/25 09:15:00;;;;;;;0.00;0.00;;;;;;;;;;5991148;23;20015;-91
2023/01/25 09:17:26;;;;;;;0.50;0.28;;;;;;;;;;5990904;23;20019;-91
2023/01/25 09:19:52;;;;;;;0.00;0.00;;;;;;;;;;6014759;23;20070;-91
2023/01/25 09:22:18;;;;;;;0.00;0.00;;;;;;;;;;5990930;23;20011;-91
2023/01/25 09:24:44;;;;;;;0.00;0.00;;;;;;;;;;5990372;23;20029;-91
2023/01/25 09:27:12;;;;;;;0.00;0.00;;;;;;;;;;6014553;23;20021;-91
2023/01/25 09:29:38;;;;;;;0.00;0.00;;;;;;;;;;5991751;23;20017;-92
2023/01/25 09:32:04;;;;;;;0.00;0.00;;;;;;;;;;6016920;23;20019;-94
2023/01/25 09:34:30;;;;;;;0.00;0.00;;;;;;;;;;5993836;23;20406;-92
2023/01/25 09:36:56;;;;;;;0.00;0.00;;;;;;;;;;5995778;23;20015;-94
2023/01/25 09:39:22;;;;;;;0.30;0.25;;;;;;;;;;5998926;23;20094;-92
2023/01/25 09:42:01;;;;;;;0.00;0.00;;;;;;;;;;6017112;23;20083;-93
2023/01/25 09:44:30;;;;;;;0.00;0.00;;;;;;;;;;5993306;23;20026;-91
2023/01/25 09:46:58;;;;;;;0.05;0.03;;;;;;;;;;5992941;23;20024;-93
2023/01/25 09:49:30;;;;;;;0.82;0.40;;;;;;;;;;5993153;23;20023;-93
2023/01/25 09:52:21;;;;;;;3.83;0.98;;;;;;;;;;5993048;23;20355;-95
2023/01/25 09:54:47;;;;;;;0.00;0.00;;;;;;;;;;5992748;23;20016;-92
2023/01/25 09:57:19;;;;;;;0.00;0.00;;;;;;;;;;5993569;23;20078;-93
2023/01/25 09:59:46;;;;;;;0.00;0.00;;;;;;;;;;6016814;23;20015;-92
2023/01/25 10:02:27;;;;;;;0.22;0.22;;;;;;;;;;5993188;23;20023;-92
2023/01/25 10:04:54;;;;;;;0.00;0.00;;;;;;;;;;5992603;23;20019;-94
2023/01/25 10:07:23;;;;;;;0.00;0.00;;;;;;;;;;6016240;23;20074;-92
2023/01/25 10:10:11;;;;;;;0.00;0.00;;;;;;;;;;5992710;23;20070;-92
2023/01/25 10:12:37;;;;;;;0.32;0.20;;;;;;;;;;5993140;23;20095;-92
2023/01/25 10:15:17;;;;;;;0.52;0.40;;;;;;;;;;6016084;23;20019;-93
2023/01/25 10:17:43;;;;;;;0.00;0.00;;;;;;;;;;5992937;23;20015;-92
2023/01/25 10:20:20;;;;;;;0.00;0.00;;;;;;;;;;5993083;23;20016;-91
2023/01/25 10:22:50;;;;;;;0.00;0.00;;;;;;;;;;5992657;23;20019;-91
2023/01/25 10:25:31;;;;;;;0.00;0.00;;;;;;;;;;6016099;23;20015;-91
2023/01/25 10:28:13;;;;;;;0.30;0.15;;;;;;;;;;5992446;23;20067;-92
2023/01/25 10:30:48;;;;;;;0.30;0.30;;;;;;;;;;6015544;23;20022;-92
2023/01/25 10:33:15;;;;;;;0.20;0.20;;;;;;;;;;5993075;23;20054;-92
2023/01/25 10:35:45;;;;;;;0.30;0.25;;;;;;;;;;5992115;23;20458;-92
2023/01/25 10:38:14;;;;;;;0.00;0.00;;;;;;;;;;5992217;23;20012;-92
2023/01/25 10:40:42;;;;;;;0.00;0.00;;;;;;;;;;5992015;23;20458;-91
2023/01/25 10:43:15;;;;;;;0.00;0.00;;;;;;;;;;5992709;23;20337;-94
2023/01/25 10:45:43;;;;;;;0.00;0.00;;;;;;;;;;6016010;23;20015;-91
2023/01/25 10:48:11;;;;;;;0.00;0.00;;;;;;;;;;5992378;23;20070;-91
2023/01/25 10:50:41;;;;;;;0.00;0.00;;;;;;;;;;5991874;23;20025;-92
2023/01/25 10:53:18;;;;;;;0.00;0.00;;;;;;;;;;5992343;23;20017;-92
2023/01/25 10:55:54;;;;;;;0.10;0.10;;;;;;;;;;5991854;23;20015;-92
2023/01/25 10:58:36;;;;;;;0.00;0.00;;;;;;;;;;6015830;23;20533;-91
2023/01/25 11:01:05;;;;;;;0.03;0.00;;;;;;;;;;6015717;23;20026;-91
2023/01/25 11:03:36;;;;;;;0.13;0.10;;;;;;;;;;5991807;23;20019;-91
2023/01/25 11:06:06;;;;;;;0.00;0.00;;;;;;;;;;6040048;23;20025;-91
2023/01/25 11:08:32;;;;;;;1.00;0.20;;;;;;;;;;6015126;23;20094;-91
2023/01/25 11:10:58;;;;;;;0.00;0.00;;;;;;;;;;5991475;23;20047;-93
2023/01/25 11:13:26;;;;;;;0.00;0.00;;;;;;;;;;5991856;23;20057;-92
2023/01/25 11:16:03;;;;;;;0.25;0.00;;;;;;;;;;5992037;23;20015;-91
2023/01/25 11:18:32;;;;;;;0.00;0.00;;;;;;;;;;5992162;23;20086;-93
2023/01/25 11:21:04;;;;;;;0.25;0.25;;;;;;;;;;5991859;23;20472;-92
2023/01/25 11:23:31;;;;;;;0.60;0.55;;;;;;;;;;5992448;23;20026;-89
2023/01/25 11:26:11;;;;;;;2.83;0.57;;;;;;;;;;6015802;23;20520;-92
2023/01/25 11:28:37;;;;;;;0.20;0.10;;;;;;;;;;5991921;23;20054;-91
2023/01/25 11:31:08;;;;;;;1.55;0.25;;;;;;;;;;5993732;23;20020;-93
2023/01/25 11:33:34;;;;;;;0.20;0.20;;;;;;;;;;5992993;23;20326;-92
2023/01/25 11:36:00;;;;;;;0.00;0.00;;;;;;;;;;5991550;23;20022;-93
2023/01/25 11:38:26;;;;;;;0.30;0.30;;;;;;;;;;6015625;23;20026;-92
2023/01/25 11:41:11;;;;;;;0.20;0.08;;;;;;;;;;5992200;23;20026;-94
2023/01/25 11:43:47;;;;;;;0.00;0.00;;;;;;;;;;5992254;23;20025;-92
2023/01/25 11:46:19;;;;;;;0.00;0.00;;;;;;;;;;6015254;23;20075;-92
2023/01/25 11:48:46;;;;;;;0.00;0.00;;;;;;;;;;5992267;23;20022;-90
2023/01/25 11:51:32;;;;;;;0.00;0.00;;;;;;;;;;5991478;23;20075;-91
2023/01/25 11:54:17;;;;;;;0.00;0.00;;;;;;;;;;5992823;23;20022;-92
2023/01/25 11:57:01;;;;;;;0.00;0.00;;;;;;;;;;5991922;23;20015;-91
2023/01/25 11:59:40;;;;;;;0.03;0.03;;;;;;;;;;5991920;23;20409;-93
2023/01/25 12:02:09;;;;;;;0.00;0.00;;;;;;;;;;5992310;23;20043;-91
2023/01/25 12:04:41;;;;;;;0.20;0.13;;;;;;;;;;5992485;23;20020;-94
2023/01/25 12:07:43;;;;;;;0.00;0.00;;;;;;;;;;5991630;23;20057;-92
2023/01/25 12:10:27;;;;;;;0.00;0.00;;;;;;;;;;5958286;24;20473;-91
2023/01/25 12:12:54;;;;;;;2.17;0.80;;;;;;;;;;6034499;23;20435;-92
2023/01/25 12:15:46;;;;;;;0.47;0.13;;;;;;;;;;5991907;23;20026;-92
2023/01/25 12:18:15;;;;;;;0.22;0.22;;;;;;;;;;5991899;23;20015;-93
2023/01/25 12:20:41;;;;;;;0.10;0.10;;;;;;;;;;5991433;23;20038;-93
2023/01/25 12:23:36;;;;;;;0.00;0.00;;;;;;;;;;5991405;23;20021;-91
2023/01/25 12:26:02;;;;;;;0.00;0.00;;;;;;;;;;5985593;23;20020;-92
2023/01/25 12:28:32;;;;;;;0.00;0.00;;;;;;;;;;5991152;23;20015;-93
2023/01/25 12:31:03;;;;;;;0.73;0.30;;;;;;;;;;5991680;23;20016;-91
2023/01/25 12:33:29;;;;;;;0.22;0.22;;;;;;;;;;5991530;23;20341;-92
2023/01/25 12:36:02;;;;;;;0.00;0.00;;;;;;;;;;6014948;23;20048;-92
2023/01/25 12:38:28;;;;;;;1.55;0.28;;;;;;;;;;5991128;23;20011;-92
2023/01/25 12:41:12;;;;;;;0.00;0.00;;;;;;;;;;5991404;23;20476;-91
2023/01/25 12:43:42;;;;;;;6.35;0.43;;;;;;;;;;5991115;23;20022;-91
2023/01/25 12:46:24;;;;;;;0.00;0.00;;;;;;;;;;5991183;23;20390;-92
2023/01/25 12:48:51;;;;;;;0.00;0.00;;;;;;;;;;6014402;23;20021;-92
2023/01/25 12:51:18;;;;;;;0.10;0.10;;;;;;;;;;6014931;23;20015;-92
2023/01/25 12:53:48;;;;;;;0.00;0.00;;;;;;;;;;5991331;23;20321;-91
2023/01/25 12:56:42;;;;;;;0.00;0.00;;;;;;;;;;6015075;23;20015;-91
2023/01/25 12:59:27;;;;;;;0.20;0.15;;;;;;;;;;5989959;23;20046;-91
2023/01/25 13:01:55;;;;;;;0.00;0.00;;;;;;;;;;5993730;23;20063;-94
2023/01/25 13:04:24;;;;;;;0.00;0.00;;;;;;;;;;5990766;23;20093;-92
2023/01/25 13:07:03;;;;;;;0.00;0.00;;;;;;;;;;6014889;23;20015;-93
2023/01/25 13:09:35;;;;;;;0.08;0.08;;;;;;;;;;6014614;23;20038;-92
2023/01/25 13:12:05;;;;;;;0.00;0.00;;;;;;;;;;5991199;23;20185;-90
2023/01/25 13:14:38;;;;;;;0.00;0.00;;;;;;;;;;5991165;23;20023;-93
2023/01/25 13:17:24;;;;;;;0.00;0.00;;;;;;;;;;6014304;23;20020;-92
2023/01/25 13:19:52;;;;;;;0.00;0.00;;;;;;;;;;5991103;23;20453;-93
2023/01/25 13:22:36;;;;;;;0.40;0.20;;;;;;;;;;5990699;23;20015;-92
2023/01/25 13:25:02;;;;;;;0.00;0.00;;;;;;;;;;5990951;23;20019;-93
2023/01/25 13:27:29;;;;;;;0.00;0.00;;;;;;;;;;5990878;23;20042;-92
2023/01/25 13:30:21;;;;;;;0.00;0.00;;;;;;;;;;5990760;23;20026;-91
2023/01/25 13:32:51;;;;;;;0.70;0.20;;;;;;;;;;6014199;23;20026;-91
2023/01/25 13:35:37;;;;;;;0.32;0.10;;;;;;;;;;5990717;23;20058;-92
2023/01/25 13:38:06;;;;;;;0.00;0.00;;;;;;;;;;5990395;23;20055;-91
2023/01/25 13:40:34;;;;;;;0.00;0.00;;;;;;;;;;6014411;23;20015;-92
2023/01/25 13:43:00;;;;;;;0.00;0.00;;;;;;;;;;5990825;23;20019;-91
2023/01/25 13:45:26;;;;;;;0.00;0.00;;;;;;;;;;5991107;23;20027;-91
2023/01/25 13:48:00;;;;;;;0.10;0.10;;;;;;;;;;5990396;23;20094;-92
2023/01/25 13:50:28;;;;;;;0.20;0.20;;;;;;;;;;6015447;23;20023;-94
2023/01/25 13:53:05;;;;;;;0.00;0.00;;;;;;;;;;5991822;23;20074;-92
2023/01/25 13:55:39;;;;;;;0.20;0.10;;;;;;;;;;5991011;23;20476;-92
2023/01/25 13:58:22;;;;;;;0.63;0.10;;;;;;;;;;5990819;23;20015;-90
2023/01/25 14:00:49;;;;;;;0.00;0.00;;;;;;;;;;5991317;23;20023;-92
2023/01/25 14:03:15;;;;;;;0.00;0.00;;;;;;;;;;5990749;23;20068;-91
2023/01/25 14:05:47;;;;;;;0.00;0.00;;;;;;;;;;5990881;23;20094;-92
2023/01/25 14:08:17;;;;;;;0.22;0.20;;;;;;;;;;5990490;23;20015;-93
2023/01/25 14:10:43;;;;;;;0.00;0.00;;;;;;;;;;5990451;23;20046;-91
2023/01/25 14:13:13;;;;;;;0.00;0.00;;;;;;;;;;5990664;23;20454;-93
2023/01/25 14:15:39;;;;;;;0.00;0.00;;;;;;;;;;5990737;23;20454;-92
2023/01/25 14:18:19;;;;;;;0.00;0.00;;;;;;;;;;5992237;23;20070;-92
2023/01/25 14:20:52;;;;;;;0.00;0.00;;;;;;;;;;5992909;23;20087;-92
2023/01/25 14:23:22;;;;;;;0.00;0.00;;;;;;;;;;5992463;23;20449;-93
2023/01/25 14:25:49;;;;;;;0.00;0.00;;;;;;;;;;5992846;23;20062;-92
2023/01/25 14:28:15;;;;;;;0.00;0.00;;;;;;;;;;6015588;23;20042;-91
2023/01/25 14:30:42;;;;;;;0.15;0.08;;;;;;;;;;5992418;23;20015;-93
2023/01/25 14:33:43;;;;;;;0.28;0.10;;;;;;;;;;5992915;23;20441;-93
2023/01/25 14:36:13;;;;;;;0.00;0.00;;;;;;;;;;5988522;23;20012;-92
2023/01/25 14:38:40;;;;;;;0.00;0.00;;;;;;;;;;5992174;23;20015;-90
2023/01/25 14:41:14;;;;;;;0.00;0.00;;;;;;;;;;5992167;23;20409;-92
2023/01/25 14:43:45;;;;;;;0.00;0.00;;;;;;;;;;5991905;23;20019;-92
2023/01/25 14:46:22;;;;;;;0.00;0.00;;;;;;;;;;6015796;23;20379;-91
2023/01/25 14:48:48;;;;;;;3.08;2.88;;;;;;;;;;6015249;23;20026;-91
2023/01/25 14:51:14;;;;;;;0.00;0.00;;;;;;;;;;5992116;23;20015;-90
2023/01/25 14:53:45;;;;;;;0.40;0.30;;;;;;;;;;6015057;23;20450;-93